Terminal Aerodrome Forecast
Issued by NWS Wakefield, VA

Home | Current Version | Previous Version | Text Only | Print | Product List | Glossary On
Versions: 1 2 3 4 5 6 7 8 9 10 11 12 13 14 15
926
FTUS41 KAKQ 262325
TAFSBY
TAF
KSBY 262325Z 2700/2724 33006KT P6SM SKC
     FM270800 00000KT P6SM SKC
     FM271500 20008KT P6SM BKN120
     FM271900 20009KT P6SM BKN100 OVC200=

USA.gov is the U.S. government's official web portal to all federal, state and local government web resources and services.